createdAt,value
2022-09-28T04:03:59.251Z,2.83
2022-09-28T04:08:11.121Z,3.22
2022-09-28T04:12:58.907Z,4.65
2022-09-28T04:17:10.438Z,4.53
2022-09-28T04:21:22.106Z,4.78
2022-09-28T04:25:39.635Z,5.32
2022-09-28T04:29:51.177Z,4.68
2022-09-28T04:34:04.027Z,5.20
2022-09-28T04:38:26.799Z,4.80
2022-09-28T04:42:56.440Z,4.47
2022-09-28T04:47:09.840Z,5.38
2022-09-28T04:51:40.112Z,4.63
2022-09-28T04:56:06.326Z,4.60
2022-09-28T05:00:17.954Z,4.88
2022-09-28T05:04:44.501Z,4.35
2022-09-28T05:09:11.675Z,4.55
2022-09-28T05:13:23.165Z,4.70
2022-09-28T05:24:21.438Z,5.68
2022-09-28T05:28:37.060Z,4.57
2022-09-28T05:33:20.873Z,5.18
2022-09-28T05:37:41.199Z,5.00
2022-09-28T05:41:52.879Z,5.20
2022-09-28T05:46:05.698Z,5.45
2022-09-28T05:51:16.707Z,4.85
2022-09-28T05:55:28.867Z,6.03
2022-09-28T05:59:40.620Z,6.00
2022-09-28T06:03:52.219Z,9.32
2022-09-28T06:08:05.630Z,8.32
2022-09-28T06:12:17.605Z,8.25
2022-09-28T06:16:32.629Z,7.85
2022-09-28T06:20:44.310Z,7.03
2022-09-28T06:25:00.502Z,4.68
2022-09-28T06:29:18.722Z,5.10
2022-09-28T06:33:31.243Z,5.03
2022-09-28T06:37:45.170Z,4.90
2022-09-28T06:41:58.716Z,5.28
2022-09-28T06:46:20.883Z,4.22
2022-09-28T06:50:41.044Z,4.47
2022-09-28T06:55:12.462Z,3.55
2022-09-28T07:05:29.584Z,4.00
2022-09-28T07:09:51.243Z,3.30
2022-09-28T07:14:40.352Z,3.42
2022-09-28T07:18:56.349Z,3.15
2022-09-28T07:23:18.175Z,3.17
2022-09-28T07:27:49.590Z,2.53
2022-09-28T07:32:16.162Z,2.70
2022-09-28T07:36:41.938Z,2.72
2022-09-28T07:41:11.723Z,2.83
2022-09-28T07:45:30.084Z,2.60
2022-09-28T07:49:41.699Z,2.50
2022-09-28T07:54:13.142Z,3.22
2022-09-28T07:58:52.764Z,2.85
2022-09-28T08:03:07.244Z,2.85
2022-09-28T08:07:23.518Z,2.70
2022-09-28T08:11:43.798Z,2.40
2022-09-28T08:16:18.925Z,2.47
2022-09-28T08:21:10.922Z,2.15
2022-09-28T08:25:24.270Z,2.10
2022-09-28T08:29:36.633Z,2.40
2022-09-28T08:34:06.747Z,2.25
2022-09-28T08:38:36.913Z,2.67
2022-09-28T08:43:37.718Z,3.00
2022-09-28T08:48:45.693Z,3.55
2022-09-28T08:53:36.052Z,3.30
2022-09-28T08:58:25.689Z,3.17
2022-09-28T09:02:39.510Z,3.25
2022-09-28T09:07:18.882Z,2.83
2022-09-28T09:11:50.020Z,2.97
2022-09-28T09:16:18.431Z,3.47
2022-09-28T09:21:07.488Z,3.40
2022-09-28T09:25:50.453Z,3.22
2022-09-28T09:30:08.795Z,2.97
2022-09-28T09:34:40.238Z,3.13
2022-09-28T09:39:41.184Z,2.50
2022-09-28T09:44:32.546Z,2.70
2022-09-28T09:49:18.121Z,2.88
2022-09-28T09:53:38.658Z,2.50
2022-09-28T09:58:06.233Z,2.13
2022-09-28T10:02:32.015Z,2.40
2022-09-28T10:07:06.634Z,2.80
2022-09-28T10:11:31.369Z,2.53
2022-09-28T10:15:47.402Z,2.30
2022-09-28T10:20:05.074Z,2.13
2022-09-28T10:25:36.627Z,2.90
2022-09-28T10:29:54.162Z,3.00
2022-09-28T10:34:07.742Z,2.85
2022-09-28T10:38:20.886Z,2.55
2022-09-28T10:42:33.997Z,2.50
2022-09-28T10:46:56.869Z,2.42
2022-09-28T10:51:08.545Z,2.13
2022-09-28T10:55:32.524Z,2.10
2022-09-28T10:59:46.618Z,2.35
2022-09-28T11:04:08.019Z,1.70
2022-09-28T11:08:26.782Z,2.00
2022-09-28T11:12:43.824Z,2.55
2022-09-28T11:17:15.100Z,2.20
2022-09-28T11:21:32.060Z,2.20
2022-09-28T11:26:04.289Z,2.13
2022-09-28T11:30:33.614Z,2.10
2022-09-28T11:35:21.945Z,2.10
2022-09-28T11:40:06.000Z,2.42
2022-09-28T11:50:31.167Z,2.05
2022-09-28T11:55:21.215Z,1.80
2022-09-28T11:59:39.299Z,1.25
2022-09-28T12:03:59.918Z,1.50
2022-09-28T12:08:20.487Z,1.33
2022-09-28T12:19:11.652Z,1.60
2022-09-28T12:23:33.781Z,1.40
2022-09-28T12:27:51.377Z,1.48
2022-09-28T12:32:14.475Z,1.60
2022-09-28T12:36:47.805Z,1.50
2022-09-28T12:41:16.699Z,2.00
2022-09-28T12:46:10.846Z,1.83
2022-09-28T12:50:45.713Z,2.30
2022-09-28T12:55:35.144Z,1.77
2022-09-28T13:00:11.796Z,1.90
2022-09-28T13:04:47.276Z,1.70
2022-09-28T13:09:15.878Z,1.60
2022-09-28T13:13:40.129Z,1.42
2022-09-28T13:23:57.876Z,1.75
2022-09-28T13:28:54.703Z,1.60
2022-09-28T13:33:08.162Z,1.88
2022-09-28T13:37:57.142Z,1.90
2022-09-28T13:42:09.534Z,2.00
2022-09-28T13:46:45.428Z,2.10
2022-09-28T13:51:14.186Z,1.73
2022-09-28T13:55:41.721Z,2.00
2022-09-28T14:06:20.714Z,1.92
2022-09-28T14:10:54.072Z,2.00
2022-09-28T14:15:30.474Z,2.13
2022-09-28T14:31:42.648Z,2.50
2022-09-28T14:41:52.662Z,2.15
2022-09-28T14:46:19.852Z,2.53
2022-09-28T14:51:28.948Z,1.98
2022-09-28T14:55:50.505Z,2.20
2022-09-28T15:00:14.912Z,2.22
2022-09-28T15:04:29.578Z,2.13
2022-09-28T15:08:41.115Z,2.38
2022-09-28T15:18:55.141Z,2.58
2022-09-28T15:23:25.557Z,2.65
2022-09-28T15:27:38.574Z,2.20
2022-09-28T15:31:54.152Z,2.22
2022-09-28T15:36:08.543Z,2.38
2022-09-28T15:40:31.942Z,2.33
2022-09-28T15:45:00.551Z,1.95
2022-09-28T15:49:30.663Z,2.20
2022-09-28T15:53:48.843Z,2.33
2022-09-28T15:58:43.968Z,4.40
2022-09-28T16:03:01.671Z,3.28
2022-09-28T16:07:13.194Z,2.67
2022-09-28T16:11:28.914Z,2.35
2022-09-28T16:15:40.453Z,2.28
2022-09-28T16:19:52.017Z,3.38
2022-09-28T16:24:03.811Z,3.30
2022-09-28T16:34:26.312Z,2.85
2022-09-28T16:38:57.851Z,4.93
2022-09-28T16:43:20.356Z,11.73
2022-09-28T16:47:34.118Z,8.63
2022-09-28T16:51:47.370Z,5.20
2022-09-28T16:55:59.692Z,5.90
2022-09-28T17:00:22.987Z,6.75
2022-09-28T17:04:34.476Z,5.70
2022-09-28T17:08:46.137Z,6.07
2022-09-28T17:12:57.655Z,6.93
2022-09-28T17:21:40.789Z,7.82
2022-09-28T17:25:54.571Z,6.80
2022-09-28T17:30:58.202Z,5.78
2022-09-28T17:35:24.239Z,21.45
2022-09-28T17:39:36.788Z,16.58
2022-09-28T17:43:48.758Z,15.18
2022-09-28T17:48:00.721Z,16.67
2022-09-28T17:52:13.115Z,18.63
2022-09-28T17:56:29.699Z,16.25
2022-09-28T18:00:47.663Z,11.02
2022-09-28T18:05:02.634Z,8.18
2022-09-28T18:09:15.112Z,5.20
2022-09-28T18:13:26.625Z,4.60
2022-09-28T18:17:38.662Z,10.68
2022-09-28T18:21:50.245Z,6.97
2022-09-28T18:26:01.733Z,6.25
2022-09-28T18:30:13.221Z,6.75
2022-09-28T18:34:24.924Z,9.65
2022-09-28T18:38:37.067Z,10.70
2022-09-28T18:42:50.715Z,8.38
2022-09-28T18:47:02.370Z,9.00
2022-09-28T18:51:13.894Z,5.07
2022-09-28T18:55:25.349Z,4.25
2022-09-28T18:59:36.837Z,4.45
2022-09-28T19:03:48.316Z,4.00
2022-09-28T19:08:00.076Z,4.40
2022-09-28T19:12:11.961Z,7.38
2022-09-28T19:16:28.033Z,10.52
2022-09-28T19:20:39.537Z,11.27
2022-09-28T19:24:51.077Z,14.50
2022-09-28T19:29:02.946Z,9.35
2022-09-28T19:33:14.667Z,6.05
2022-09-28T19:37:26.183Z,4.72
2022-09-28T19:41:44.687Z,4.32
2022-09-28T19:45:56.477Z,4.55
2022-09-28T19:50:08.741Z,4.35
2022-09-28T19:54:22.162Z,3.75
2022-09-28T19:58:36.248Z,5.07
2022-09-28T20:02:47.799Z,4.60
2022-09-28T20:06:59.389Z,4.18
2022-09-28T20:11:10.906Z,4.35
2022-09-28T20:15:23.714Z,3.67
2022-09-28T20:19:35.956Z,3.35
2022-09-28T20:23:47.890Z,3.20
2022-09-28T20:27:59.530Z,3.17
2022-09-28T20:32:11.529Z,3.22
2022-09-28T20:36:24.661Z,3.17
2022-09-28T20:40:37.366Z,3.80
2022-09-28T20:44:48.896Z,3.95
2022-09-28T20:49:00.433Z,4.28
2022-09-28T20:53:11.934Z,3.92
2022-09-28T20:57:23.416Z,3.92
2022-09-28T21:01:35.490Z,4.60
2022-09-28T21:05:50.587Z,5.95
2022-09-28T21:10:02.104Z,4.68
2022-09-28T21:14:13.596Z,3.88
2022-09-28T21:18:25.319Z,3.35
2022-09-28T21:22:39.218Z,2.97
2022-09-28T21:26:50.820Z,3.10
